Time;durP1;ratioP1;P1;durP2;ratioP2;P2;SDS_P1;SDS_P2;PMS_P1;PMS_P2;Temp;Humidity;BMP_temperature;BMP_pressure;BME280_temperature;BME280_humidity;BME280_pressure;Samples;Min_cycle;Max_cycle;Signal;HPM_P1;HPM_P2
2023/08/13 00:02:25;;;;;;;13.80;3.20;;;17.70;99.90;;;;;;5059123;28;20054;-75
2023/08/13 00:04:50;;;;;;;18.30;4.50;;;17.70;99.90;;;;;;5045189;28;20051;-75
2023/08/13 00:07:16;;;;;;;19.58;3.65;;;17.80;99.90;;;;;;5034157;28;20047;-75
2023/08/13 00:09:43;;;;;;;14.68;3.75;;;17.80;99.90;;;;;;5048449;28;20059;-76
2023/08/13 00:12:08;;;;;;;23.80;4.70;;;17.80;99.90;;;;;;5043498;28;20158;-76
2023/08/13 00:14:34;;;;;;;22.15;4.05;;;17.80;99.90;;;;;;5046438;28;20112;-75
2023/08/13 00:17:00;;;;;;;19.92;3.75;;;17.80;99.90;;;;;;5059861;28;20646;-75
2023/08/13 00:19:26;;;;;;;19.30;3.78;;;17.90;99.90;;;;;;5057793;28;20546;-77
2023/08/13 00:21:52;;;;;;;22.25;4.30;;;17.90;99.90;;;;;;5057451;28;20463;-75
2023/08/13 00:24:17;;;;;;;17.67;3.80;;;17.90;99.90;;;;;;5059787;28;20043;-74
2023/08/13 00:26:43;;;;;;;16.88;3.42;;;17.90;99.90;;;;;;5044448;28;20071;-76
2023/08/13 00:29:09;;;;;;;15.52;3.58;;;17.90;99.90;;;;;;5044430;28;20044;-74
2023/08/13 00:31:35;;;;;;;18.00;3.60;;;17.90;99.90;;;;;;5045514;28;20073;-76
2023/08/13 00:34:00;;;;;;;19.70;4.07;;;17.90;99.90;;;;;;5059644;28;20522;-75
2023/08/13 00:36:26;;;;;;;17.45;3.58;;;17.90;99.90;;;;;;5048692;28;20403;-74
2023/08/13 00:38:52;;;;;;;14.45;3.67;;;17.80;99.90;;;;;;5059322;28;20146;-75
2023/08/13 00:41:18;;;;;;;19.13;4.13;;;17.80;99.90;;;;;;5030596;28;21446;-77
2023/08/13 00:43:43;;;;;;;15.52;3.60;;;17.90;99.90;;;;;;5041769;28;20478;-75
2023/08/13 00:46:10;;;;;;;17.52;3.60;;;17.80;99.90;;;;;;5046814;28;20047;-74
2023/08/13 00:48:40;;;;;;;17.90;3.78;;;17.80;99.90;;;;;;5057057;28;20063;-76
2023/08/13 00:51:07;;;;;;;23.08;3.90;;;17.80;99.90;;;;;;5058568;28;20043;-77
2023/08/13 00:53:47;;;;;;;17.77;4.15;;;17.80;99.90;;;;;;5063882;28;20119;-75
2023/08/13 00:56:14;;;;;;;19.33;4.63;;;17.80;99.90;;;;;;5058255;28;20043;-75
2023/08/13 00:58:41;;;;;;;20.45;3.28;;;17.80;99.90;;;;;;5061581;28;20036;-75
2023/08/13 01:01:07;;;;;;;21.25;3.80;;;17.80;99.90;;;;;;5044981;28;20068;-75
2023/08/13 01:03:34;;;;;;;20.90;3.83;;;17.80;99.90;;;;;;5046322;28;20054;-74
2023/08/13 01:06:27;;;;;;;18.73;3.83;;;17.80;99.90;;;;;;5060225;28;20052;-76
2023/08/13 01:09:09;;;;;;;16.58;4.25;;;17.80;99.90;;;;;;5058349;28;20137;-76
2023/08/13 01:11:35;;;;;;;17.15;3.50;;;17.80;99.90;;;;;;5055713;28;20163;-78
2023/08/13 01:14:29;;;;;;;16.80;3.60;;;17.80;99.90;;;;;;5058440;28;20093;-75
2023/08/13 01:16:57;;;;;;;18.02;4.15;;;17.80;99.90;;;;;;5042320;28;20483;-75
2023/08/13 01:19:23;;;;;;;17.70;3.60;;;17.80;99.90;;;;;;5061903;28;20048;-76
2023/08/13 01:21:49;;;;;;;17.95;3.53;;;17.70;99.90;;;;;;5042860;28;20031;-75
2023/08/13 01:24:15;;;;;;;21.00;4.03;;;17.80;99.90;;;;;;5045156;28;20070;-76
2023/08/13 01:26:54;;;;;;;15.48;3.58;;;17.80;99.90;;;;;;5027207;28;20146;-75
2023/08/13 01:29:42;;;;;;;20.35;3.45;;;17.80;99.90;;;;;;5058120;28;20054;-77
2023/08/13 01:32:12;;;;;;;15.38;3.70;;;17.80;99.90;;;;;;5048195;28;20102;-78
2023/08/13 01:34:38;;;;;;;19.13;4.13;;;17.80;99.90;;;;;;5064713;28;20580;-77
2023/08/13 01:37:04;;;;;;;22.10;3.63;;;17.80;99.90;;;;;;5054577;28;20040;-76
2023/08/13 01:39:31;;;;;;;20.05;4.47;;;17.90;99.90;;;;;;5030208;28;20054;-75
2023/08/13 01:41:57;;;;;;;17.90;3.50;;;17.90;99.90;;;;;;5059111;28;20051;-75
2023/08/13 01:44:23;;;;;;;15.65;3.45;;;17.90;99.90;;;;;;5056456;28;20043;-77
2023/08/13 01:46:49;;;;;;;21.05;4.05;;;17.90;99.90;;;;;;5053315;28;20051;-75
2023/08/13 01:49:15;;;;;;;18.58;3.88;;;17.50;99.90;;;;;;5056664;28;20046;-74
2023/08/13 01:51:41;;;;;;;18.80;3.80;;;18.00;99.90;;;;;;5057719;28;20039;-74
2023/08/13 01:54:06;;;;;;;18.52;3.72;;;17.90;99.90;;;;;;5060115;28;20568;-76
2023/08/13 01:56:32;;;;;;;23.85;4.38;;;18.00;99.90;;;;;;5052730;28;20043;-77
2023/08/13 01:58:58;;;;;;;22.35;4.22;;;18.00;99.90;;;;;;5040700;28;20099;-76
2023/08/13 02:01:24;;;;;;;17.95;4.20;;;18.00;99.90;;;;;;5039493;28;20077;-75
2023/08/13 02:03:50;;;;;;;16.90;3.35;;;18.00;99.90;;;;;;5029670;28;20081;-74
2023/08/13 02:06:16;;;;;;;18.58;3.53;;;18.00;99.90;;;;;;5030753;28;20723;-77
2023/08/13 02:08:42;;;;;;;19.45;4.15;;;18.00;99.90;;;;;;5031400;28;20047;-74
2023/08/13 02:11:08;;;;;;;13.48;3.15;;;18.10;99.90;;;;;;5031432;28;20048;-74
2023/08/13 02:13:34;;;;;;;17.48;3.90;;;18.00;99.90;;;;;;5032745;28;20467;-76
2023/08/13 02:16:03;;;;;;;23.08;4.10;;;18.10;99.90;;;;;;5055081;28;20939;-77
2023/08/13 02:18:29;;;;;;;20.98;4.30;;;18.00;99.90;;;;;;5041357;28;20075;-74
2023/08/13 02:20:55;;;;;;;17.15;3.70;;;18.00;99.90;;;;;;5044188;28;20246;-75
2023/08/13 02:23:21;;;;;;;21.13;3.97;;;18.10;99.90;;;;;;5060678;28;20044;-77
2023/08/13 02:25:47;;;;;;;18.70;3.58;;;18.10;99.90;;;;;;5054430;28;20952;-75
2023/08/13 02:28:13;;;;;;;18.25;3.63;;;18.10;99.90;;;;;;5043923;28;20055;-74
2023/08/13 02:30:39;;;;;;;20.15;4.72;;;18.10;99.90;;;;;;5046188;28;20051;-76
2023/08/13 02:33:05;;;;;;;20.13;4.05;;;18.10;99.90;;;;;;5056108;28;20521;-75
2023/08/13 02:35:31;;;;;;;18.75;4.40;;;18.10;99.90;;;;;;5054129;28;20113;-74
2023/08/13 02:37:56;;;;;;;16.33;3.50;;;18.10;99.90;;;;;;5056351;28;20123;-75
2023/08/13 02:40:22;;;;;;;17.90;3.45;;;18.20;99.90;;;;;;5042617;28;20047;-76
2023/08/13 02:42:48;;;;;;;15.40;3.60;;;18.10;99.90;;;;;;5044841;28;20043;-75
2023/08/13 02:45:14;;;;;;;17.85;4.07;;;18.10;99.90;;;;;;5052417;28;22129;-78
2023/08/13 02:47:40;;;;;;;18.85;4.35;;;18.10;99.90;;;;;;5056748;28;20040;-76
2023/08/13 02:50:06;;;;;;;18.25;3.95;;;18.10;99.90;;;;;;5052204;28;20047;-77
2023/08/13 02:52:32;;;;;;;19.88;3.83;;;18.10;99.90;;;;;;5042999;28;20050;-75
2023/08/13 02:54:58;;;;;;;17.95;3.42;;;18.20;99.90;;;;;;5055172;28;20040;-76
2023/08/13 02:57:24;;;;;;;14.77;3.22;;;18.20;99.90;;;;;;5040242;28;20035;-76
2023/08/13 02:59:49;;;;;;;18.88;4.10;;;18.10;99.90;;;;;;5045373;28;20149;-77
2023/08/13 03:02:16;;;;;;;18.30;3.70;;;18.20;99.90;;;;;;5056190;28;20048;-75
2023/08/13 03:04:42;;;;;;;18.48;3.47;;;18.20;99.90;;;;;;5056145;28;21073;-77
2023/08/13 03:07:08;;;;;;;17.75;3.15;;;18.20;99.90;;;;;;5052067;28;20039;-74
2023/08/13 03:09:34;;;;;;;16.27;3.92;;;18.10;99.90;;;;;;5043428;28;20051;-75
2023/08/13 03:12:01;;;;;;;14.95;3.60;;;18.10;99.90;;;;;;5042039;28;20048;-76
2023/08/13 03:14:27;;;;;;;17.40;3.33;;;18.20;99.90;;;;;;5045705;28;20884;-76
2023/08/13 03:16:52;;;;;;;18.60;3.20;;;18.10;99.90;;;;;;5060150;28;20074;-76
2023/08/13 03:19:18;;;;;;;20.02;3.53;;;18.10;99.90;;;;;;5056165;28;20048;-74
2023/08/13 03:21:44;;;;;;;16.45;3.40;;;18.10;99.90;;;;;;5060516;28;20059;-75
2023/08/13 03:24:10;;;;;;;15.93;3.58;;;18.20;99.90;;;;;;5046033;28;20162;-78
2023/08/13 03:26:36;;;;;;;15.43;3.20;;;18.20;99.90;;;;;;5027733;28;20126;-76
2023/08/13 03:29:01;;;;;;;16.05;3.60;;;18.20;99.90;;;;;;5056856;28;20500;-75
2023/08/13 03:31:27;;;;;;;20.25;3.70;;;18.20;99.90;;;;;;5043342;28;21796;-78
2023/08/13 03:33:53;;;;;;;14.18;3.55;;;18.20;99.90;;;;;;5044343;28;20052;-78
2023/08/13 03:36:19;;;;;;;17.58;4.00;;;18.20;99.90;;;;;;5027688;28;20052;-75
2023/08/13 03:38:44;;;;;;;16.58;3.50;;;18.10;99.90;;;;;;5046263;28;20055;-75
2023/08/13 03:41:10;;;;;;;16.58;3.20;;;18.20;99.90;;;;;;5061432;28;20387;-75
2023/08/13 03:43:36;;;;;;;16.00;3.47;;;18.20;99.90;;;;;;5030835;28;21819;-78
2023/08/13 03:46:02;;;;;;;18.15;3.72;;;18.10;99.90;;;;;;5031632;28;20040;-76
2023/08/13 03:48:28;;;;;;;17.45;3.60;;;18.10;99.90;;;;;;5043861;28;20516;-75
2023/08/13 03:50:54;;;;;;;15.90;2.95;;;18.10;99.90;;;;;;5044244;28;20126;-74
2023/08/13 03:53:22;;;;;;;16.17;3.50;;;18.10;99.90;;;;;;5041687;28;20385;-74
2023/08/13 03:55:48;;;;;;;14.63;3.60;;;18.10;99.90;;;;;;5029990;28;20104;-75
2023/08/13 03:58:13;;;;;;;18.42;2.97;;;18.20;99.90;;;;;;5059698;28;20044;-74
2023/08/13 04:00:39;;;;;;;16.92;2.80;;;18.10;99.90;;;;;;5046153;28;20516;-74
2023/08/13 04:03:05;;;;;;;15.40;3.35;;;18.10;99.90;;;;;;5040827;28;20056;-77
2023/08/13 04:05:31;;;;;;;14.55;3.25;;;18.10;99.90;;;;;;5042161;28;20055;-76
2023/08/13 04:07:58;;;;;;;18.45;4.10;;;18.10;99.90;;;;;;5045894;28;20040;-75
2023/08/13 04:10:24;;;;;;;17.92;3.38;;;18.10;99.90;;;;;;5045403;28;20086;-74
2023/08/13 04:12:50;;;;;;;15.52;3.80;;;18.10;99.90;;;;;;5055676;28;20843;-77
2023/08/13 04:15:16;;;;;;;15.88;3.50;;;18.10;99.90;;;;;;5038913;28;20050;-75
2023/08/13 04:17:42;;;;;;;15.93;3.42;;;18.00;99.90;;;;;;5055533;28;20135;-77
2023/08/13 04:20:10;;;;;;;14.27;3.28;;;18.00;99.90;;;;;;5040157;28;20052;-74
2023/08/13 04:22:36;;;;;;;14.05;3.00;;;18.00;99.90;;;;;;5055480;28;20058;-76
2023/08/13 04:25:02;;;;;;;13.98;3.38;;;18.10;99.90;;;;;;5054933;28;20588;-75
2023/08/13 04:27:27;;;;;;;16.20;3.40;;;18.00;99.90;;;;;;5054569;28;20047;-75
2023/08/13 04:29:53;;;;;;;12.80;3.05;;;18.10;99.90;;;;;;5028266;28;20043;-74
2023/08/13 04:32:19;;;;;;;15.35;3.35;;;18.00;99.90;;;;;;5045016;28;20074;-79
2023/08/13 04:34:44;;;;;;;18.27;3.72;;;18.10;99.90;;;;;;5057490;28;20051;-78
2023/08/13 04:37:10;;;;;;;16.20;3.05;;;18.00;99.90;;;;;;5075420;28;20044;-74
2023/08/13 04:39:36;;;;;;;14.82;3.33;;;18.10;99.90;;;;;;5047938;28;20063;-75
2023/08/13 04:42:04;;;;;;;19.08;3.78;;;18.10;99.90;;;;;;5055069;28;20093;-77
2023/08/13 04:44:29;;;;;;;23.45;4.10;;;18.10;99.90;;;;;;5046124;28;20921;-74
2023/08/13 04:46:55;;;;;;;17.45;3.25;;;18.10;99.90;;;;;;5056073;28;20044;-76
2023/08/13 04:49:21;;;;;;;16.77;3.75;;;18.10;99.90;;;;;;5047220;28;20038;-75
2023/08/13 04:51:48;;;;;;;14.52;3.55;;;18.10;99.90;;;;;;5039654;28;20199;-77
2023/08/13 04:54:14;;;;;;;14.50;3.70;;;18.10;99.90;;;;;;5051663;28;20501;-74
2023/08/13 04:56:40;;;;;;;15.48;3.33;;;18.10;99.90;;;;;;5057311;28;20036;-75
2023/08/13 04:59:06;;;;;;;15.43;3.20;;;18.10;99.90;;;;;;5044740;28;20136;-76
2023/08/13 05:01:31;;;;;;;14.25;2.97;;;18.10;99.90;;;;;;5073102;28;20087;-75
2023/08/13 05:03:57;;;;;;;16.45;3.38;;;18.10;99.90;;;;;;5044512;28;20211;-73
2023/08/13 05:06:23;;;;;;;17.23;3.75;;;18.10;99.90;;;;;;5042738;28;20065;-76
2023/08/13 05:08:49;;;;;;;14.93;3.25;;;18.10;99.90;;;;;;5040371;28;20504;-77
2023/08/13 05:11:14;;;;;;;16.48;3.20;;;18.10;99.90;;;;;;5040295;28;21909;-79
2023/08/13 05:13:40;;;;;;;16.17;3.28;;;18.10;99.90;;;;;;5056132;28;20607;-74
2023/08/13 05:16:06;;;;;;;16.38;3.45;;;18.10;99.90;;;;;;5038645;28;20052;-75
2023/08/13 05:18:32;;;;;;;19.00;2.97;;;18.10;99.90;;;;;;5045017;28;20100;-76
2023/08/13 05:20:57;;;;;;;15.25;3.40;;;18.10;99.90;;;;;;5059872;28;21513;-75
2023/08/13 05:23:23;;;;;;;17.45;3.42;;;18.10;99.90;;;;;;5029679;28;20048;-78
2023/08/13 05:25:49;;;;;;;14.25;3.78;;;18.10;99.90;;;;;;5043353;28;20059;-76
2023/08/13 05:28:18;;;;;;;16.75;3.30;;;18.10;99.90;;;;;;5040838;28;20040;-77
2023/08/13 05:30:44;;;;;;;17.13;3.97;;;18.10;99.90;;;;;;5038581;28;20052;-77
2023/08/13 05:33:10;;;;;;;17.50;3.35;;;18.10;99.90;;;;;;5057691;28;20039;-75
2023/08/13 05:35:36;;;;;;;15.15;3.15;;;18.20;99.90;;;;;;5057101;28;20101;-77
2023/08/13 05:38:02;;;;;;;14.25;3.30;;;18.30;99.90;;;;;;5054020;28;20104;-75
2023/08/13 05:40:30;;;;;;;16.80;3.55;;;18.30;99.90;;;;;;5041207;28;20048;-78
2023/08/13 05:42:56;;;;;;;14.20;3.10;;;18.30;99.90;;;;;;5058385;28;20133;-76
2023/08/13 05:45:22;;;;;;;13.68;2.90;;;18.40;99.90;;;;;;5029154;28;20424;-76
2023/08/13 05:47:47;;;;;;;12.30;2.70;;;18.40;99.90;;;;;;5040745;28;20040;-75
2023/08/13 05:50:13;;;;;;;14.15;3.10;;;18.40;99.90;;;;;;5046369;28;20055;-76
2023/08/13 05:52:39;;;;;;;19.83;3.35;;;18.40;99.90;;;;;;5051319;28;20125;-76
2023/08/13 05:55:05;;;;;;;14.85;3.45;;;18.50;99.90;;;;;;5061091;28;20371;-77
2023/08/13 05:57:31;;;;;;;12.23;2.80;;;18.50;99.90;;;;;;5061231;28;20059;-76
2023/08/13 05:59:57;;;;;;;13.82;3.35;;;18.60;99.90;;;;;;5076902;28;20056;-77
2023/08/13 06:02:23;;;;;;;12.27;3.03;;;18.60;99.90;;;;;;5048436;28;20055;-76
2023/08/13 06:04:49;;;;;;;15.23;3.28;;;18.60;99.90;;;;;;5047275;28;20052;-76
2023/08/13 06:07:15;;;;;;;12.68;2.92;;;18.60;99.90;;;;;;5044444;28;20047;-76
2023/08/13 06:09:41;;;;;;;10.25;2.35;;;18.70;99.90;;;;;;5048515;28;20079;-78
2023/08/13 06:12:07;;;;;;;10.25;2.92;;;18.70;99.90;;;;;;5045263;28;20048;-76
2023/08/13 06:14:33;;;;;;;10.82;2.22;;;18.80;99.90;;;;;;5041766;28;20127;-78
2023/08/13 06:16:59;;;;;;;11.52;2.53;;;18.80;99.90;;;;;;5027255;28;20051;-76
2023/08/13 06:19:25;;;;;;;10.00;2.58;;;18.90;99.90;;;;;;5041308;28;20048;-78
2023/08/13 06:21:50;;;;;;;14.10;2.95;;;18.90;99.90;;;;;;5032694;28;20050;-77
2023/08/13 06:24:16;;;;;;;12.30;2.65;;;18.90;99.90;;;;;;5030163;28;20479;-75
2023/08/13 06:26:42;;;;;;;12.57;2.47;;;18.90;99.90;;;;;;5022917;28;20058;-76
2023/08/13 06:29:08;;;;;;;8.52;2.15;;;18.90;99.90;;;;;;5045438;28;21104;-77
2023/08/13 06:31:35;;;;;;;11.90;2.50;;;19.00;99.90;;;;;;5055170;28;20043;-76
2023/08/13 06:34:01;;;;;;;13.85;3.25;;;19.00;99.90;;;;;;5052454;28;20128;-75
2023/08/13 06:36:27;;;;;;;11.48;2.70;;;19.10;99.90;;;;;;5028554;28;20055;-76
2023/08/13 06:38:52;;;;;;;11.07;2.53;;;19.10;99.90;;;;;;5028843;28;20051;-78
2023/08/13 06:41:18;;;;;;;9.05;2.20;;;19.20;99.90;;;;;;5037776;28;20047;-76
2023/08/13 06:43:44;;;;;;;8.07;2.45;;;19.30;99.90;;;;;;5056419;28;20128;-76
2023/08/13 06:46:10;;;;;;;9.45;1.98;;;19.30;99.90;;;;;;5033203;28;20051;-76
2023/08/13 06:48:38;;;;;;;11.73;2.30;;;19.30;99.90;;;;;;5078651;28;20071;-77
2023/08/13 06:51:04;;;;;;;10.25;2.22;;;19.40;99.90;;;;;;5049320;28;20993;-76
2023/08/13 06:53:29;;;;;;;7.22;2.05;;;19.40;99.90;;;;;;5033204;28;20420;-77
2023/08/13 06:56:00;;;;;;;11.95;2.25;;;19.50;99.70;;;;;;5059414;28;20163;-77
2023/08/13 06:58:26;;;;;;;12.48;2.50;;;19.50;99.60;;;;;;5060193;28;20044;-77
2023/08/13 07:00:51;;;;;;;10.05;2.75;;;19.60;99.50;;;;;;5059246;28;20292;-78
2023/08/13 07:03:17;;;;;;;7.60;1.88;;;19.60;99.30;;;;;;5043154;28;20482;-77
2023/08/13 07:05:43;;;;;;;11.52;2.10;;;19.70;99.00;;;;;;5059482;28;20134;-77
2023/08/13 07:08:09;;;;;;;10.73;2.17;;;19.60;98.80;;;;;;5046184;28;20174;-78
2023/08/13 07:10:35;;;;;;;9.07;2.05;;;19.60;98.70;;;;;;5056133;28;20044;-78
2023/08/13 07:13:04;;;;;;;11.10;2.47;;;19.60;98.80;;;;;;5059208;28;20047;-76
2023/08/13 07:15:30;;;;;;;10.40;2.40;;;19.60;98.70;;;;;;5042874;28;21751;-78
2023/08/13 07:17:57;;;;;;;10.68;2.20;;;19.60;98.50;;;;;;5056893;28;20039;-77
2023/08/13 07:20:24;;;;;;;9.13;2.10;;;19.70;98.30;;;;;;5061577;28;20115;-78
2023/08/13 07:22:50;;;;;;;7.05;2.15;;;19.40;98.10;;;;;;5055555;28;20043;-77
2023/08/13 07:25:16;;;;;;;9.20;2.05;;;19.80;98.00;;;;;;5049610;28;20491;-76
2023/08/13 07:27:44;;;;;;;10.80;2.10;;;20.00;97.90;;;;;;5046685;28;20067;-74
2023/08/13 07:30:11;;;;;;;7.43;2.17;;;20.10;97.50;;;;;;5042469;28;20042;-74
2023/08/13 07:32:40;;;;;;;11.18;2.40;;;20.20;97.10;;;;;;5044165;28;20086;-77
2023/08/13 07:35:06;;;;;;;12.57;2.97;;;20.20;96.90;;;;;;5071763;28;20043;-74
2023/08/13 07:37:33;;;;;;;10.50;2.40;;;20.30;96.80;;;;;;5041078;28;20043;-76
2023/08/13 07:39:59;;;;;;;7.88;2.08;;;20.30;96.50;;;;;;5045987;28;20070;-75
2023/08/13 07:42:25;;;;;;;9.32;2.65;;;20.50;96.00;;;;;;5037480;28;20435;-76
2023/08/13 07:44:51;;;;;;;9.10;2.00;;;20.70;95.50;;;;;;5056071;28;20058;-75
2023/08/13 07:47:17;;;;;;;7.03;1.83;;;20.90;95.10;;;;;;5056437;28;20502;-77
2023/08/13 07:49:42;;;;;;;9.65;2.10;;;21.20;94.70;;;;;;5028328;28;20502;-76
2023/08/13 07:52:08;;;;;;;10.98;2.95;;;21.40;94.10;;;;;;5040013;28;20051;-77
2023/08/13 07:54:36;;;;;;;8.80;2.38;;;21.50;93.70;;;;;;5040123;28;20505;-76
2023/08/13 07:57:04;;;;;;;8.20;2.05;;;21.60;93.10;;;;;;5056570;28;20067;-76
2023/08/13 07:59:29;;;;;;;11.20;2.15;;;21.60;92.60;;;;;;5053020;28;20052;-78
2023/08/13 08:01:55;;;;;;;10.57;2.10;;;21.70;92.40;;;;;;5057762;28;20051;-78
2023/08/13 08:04:21;;;;;;;11.30;2.63;;;21.80;92.00;;;;;;5057199;28;20048;-77
2023/08/13 08:06:48;;;;;;;11.38;2.10;;;21.70;91.60;;;;;;5061884;28;20052;-77
2023/08/13 08:09:13;;;;;;;8.73;2.28;;;21.80;91.40;;;;;;5056361;28;20140;-78
2023/08/13 08:11:39;;;;;;;7.63;2.17;;;21.80;90.90;;;;;;5045346;28;20052;-76
2023/08/13 08:14:05;;;;;;;7.93;2.40;;;21.70;90.80;;;;;;5045564;28;20452;-77
2023/08/13 08:16:31;;;;;;;9.02;2.47;;;21.70;91.00;;;;;;5058469;28;20047;-76
2023/08/13 08:18:56;;;;;;;8.43;2.35;;;21.60;91.20;;;;;;5060347;28;20056;-78
2023/08/13 08:21:22;;;;;;;10.38;2.67;;;21.50;91.40;;;;;;5056212;28;20043;-76
2023/08/13 08:23:48;;;;;;;13.13;2.40;;;21.50;91.60;;;;;;5055121;28;20047;-77
2023/08/13 08:26:13;;;;;;;15.25;2.70;;;21.60;91.60;;;;;;5018303;28;20048;-77
2023/08/13 08:28:39;;;;;;;7.22;2.10;;;21.80;91.30;;;;;;5053046;28;20201;-76
2023/08/13 08:31:05;;;;;;;7.55;1.80;;;22.00;90.60;;;;;;5042409;28;20619;-78
2023/08/13 08:33:31;;;;;;;6.55;1.98;;;22.10;89.70;;;;;;5044784;28;20098;-76
2023/08/13 08:35:56;;;;;;;7.03;2.10;;;22.40;88.20;;;;;;5033097;28;20131;-76
2023/08/13 08:38:22;;;;;;;8.48;1.98;;;22.70;86.80;;;;;;5056199;28;21038;-76
2023/08/13 08:40:51;;;;;;;7.55;1.90;;;22.70;84.60;;;;;;5060218;28;20051;-77
2023/08/13 08:43:17;;;;;;;7.32;2.33;;;22.70;83.10;;;;;;5059935;28;20121;-77
2023/08/13 08:45:45;;;;;;;12.45;2.03;;;22.50;82.20;;;;;;5029273;28;20097;-77
2023/08/13 08:48:12;;;;;;;8.50;1.98;;;22.40;81.50;;;;;;5051717;28;20159;-75
2023/08/13 08:50:39;;;;;;;7.82;1.75;;;22.10;81.40;;;;;;5046729;28;20048;-76
2023/08/13 08:53:05;;;;;;;7.93;1.67;;;22.00;81.50;;;;;;5057395;28;20043;-77
2023/08/13 08:55:31;;;;;;;7.47;1.95;;;21.80;82.40;;;;;;5042464;28;20580;-75
2023/08/13 08:57:57;;;;;;;11.13;2.42;;;21.70;83.00;;;;;;5052878;28;20127;-77
2023/08/13 09:00:23;;;;;;;7.13;1.90;;;21.50;83.90;;;;;;5043997;28;20073;-76
2023/08/13 09:02:50;;;;;;;9.95;2.33;;;21.30;85.50;;;;;;5055497;28;20449;-75
2023/08/13 09:05:16;;;;;;;8.52;1.85;;;21.20;86.60;;;;;;5044168;28;20047;-76
2023/08/13 09:07:42;;;;;;;4.90;1.70;;;21.40;87.40;;;;;;5055804;28;20051;-77
2023/08/13 09:10:10;;;;;;;9.32;2.20;;;21.50;86.90;;;;;;5043076;28;20226;-76
2023/08/13 09:12:41;;;;;;;10.07;2.53;;;21.60;85.90;;;;;;5043408;28;20048;-78
2023/08/13 09:15:09;;;;;;;10.93;2.58;;;21.90;84.90;;;;;;5040593;28;20123;-76
2023/08/13 09:17:35;;;;;;;8.35;1.92;;;22.20;84.30;;;;;;5051113;28;20481;-76
2023/08/13 09:20:18;;;;;;;9.07;2.20;;;22.20;84.00;;;;;;5041592;28;20051;-75
2023/08/13 09:22:50;;;;;;;8.25;2.05;;;22.10;83.10;;;;;;5056503;28;21327;-76
2023/08/13 09:25:18;;;;;;;7.55;2.22;;;22.00;83.90;;;;;;5047583;28;20036;-77
2023/08/13 09:27:46;;;;;;;11.60;2.33;;;21.80;84.40;;;;;;5055650;28;20942;-77
2023/08/13 09:30:21;;;;;;;12.45;2.25;;;21.80;84.20;;;;;;5053067;28;20052;-77
2023/08/13 09:32:47;;;;;;;6.80;1.73;;;21.90;84.10;;;;;;5038526;28;20043;-75
2023/08/13 09:35:13;;;;;;;7.45;1.67;;;22.10;83.80;;;;;;5042171;28;20050;-77
2023/08/13 09:37:38;;;;;;;8.88;1.95;;;22.20;82.80;;;;;;5043905;28;20043;-77
2023/08/13 09:40:06;;;;;;;8.48;1.98;;;22.40;81.70;;;;;;5048869;28;20438;-76
2023/08/13 09:42:33;;;;;;;9.10;2.17;;;22.50;80.50;;;;;;5046551;28;20760;-75
2023/08/13 09:45:05;;;;;;;8.35;1.80;;;22.60;79.80;;;;;;5051639;28;20044;-77
2023/08/13 09:47:35;;;;;;;8.82;2.33;;;22.60;79.20;;;;;;5060566;28;20044;-77
2023/08/13 09:50:02;;;;;;;6.07;1.90;;;22.40;79.10;;;;;;5056543;28;20401;-77
2023/08/13 09:52:30;;;;;;;9.90;2.35;;;22.40;79.50;;;;;;5042167;28;20082;-77
2023/08/13 09:55:08;;;;;;;7.00;1.70;;;22.20;80.60;;;;;;5029639;28;20070;-78
2023/08/13 09:57:36;;;;;;;6.13;1.77;;;22.10;81.20;;;;;;5060431;28;20050;-76
2023/08/13 10:00:02;;;;;;;6.53;1.80;;;22.10;80.80;;;;;;5043652;28;20763;-78
2023/08/13 10:02:29;;;;;;;6.90;2.00;;;22.10;80.40;;;;;;5062995;28;20067;-77
2023/08/13 10:04:56;;;;;;;7.57;2.28;;;22.20;79.10;;;;;;5059441;28;20067;-76
2023/08/13 10:07:23;;;;;;;7.80;1.88;;;22.40;77.90;;;;;;5060378;28;20058;-76
2023/08/13 10:09:50;;;;;;;10.27;1.50;;;22.50;76.20;;;;;;5032256;28;20066;-76
2023/08/13 10:12:17;;;;;;;9.45;2.10;;;22.50;75.10;;;;;;5056897;28;20048;-78
2023/08/13 10:14:43;;;;;;;7.15;1.52;;;22.50;74.30;;;;;;5042666;28;20043;-76
2023/08/13 10:17:09;;;;;;;8.02;1.65;;;22.50;74.00;;;;;;5056886;28;20370;-78
2023/08/13 10:19:38;;;;;;;5.22;1.48;;;22.50;73.50;;;;;;5063343;28;20047;-76
2023/08/13 10:22:04;;;;;;;8.18;1.70;;;22.50;72.50;;;;;;5065929;28;20090;-76
2023/08/13 10:24:30;;;;;;;6.65;1.50;;;22.60;71.30;;;;;;5061656;28;20048;-76
2023/08/13 10:27:00;;;;;;;6.82;1.70;;;22.60;70.40;;;;;;5047200;28;21559;-78
2023/08/13 10:29:40;;;;;;;5.32;1.35;;;23.00;69.80;;;;;;5062858;28;20818;-76
2023/08/13 10:32:15;;;;;;;7.28;1.38;;;23.00;60.60;;;;;;5062414;28;20044;-75
2023/08/13 10:34:47;;;;;;;7.03;1.30;;;23.10;59.60;;;;;;5046727;28;20048;-76
2023/08/13 10:37:16;;;;;;;4.03;1.30;;;22.90;56.90;;;;;;5061100;28;20149;-77
2023/08/13 10:39:44;;;;;;;5.97;1.38;;;23.20;56.40;;;;;;5060220;28;20047;-76
2023/08/13 10:42:37;;;;;;;4.72;1.40;;;23.40;54.60;;;;;;5042977;28;20048;-75
2023/08/13 10:45:12;;;;;;;6.97;1.50;;;23.40;45.80;;;;;;5048868;28;20105;-76
2023/08/13 10:47:49;;;;;;;4.35;1.52;;;23.40;47.00;;;;;;5054169;28;20046;-75
2023/08/13 10:50:33;;;;;;;4.78;1.50;;;23.50;49.60;;;;;;5067807;28;20048;-76
2023/08/13 10:53:04;;;;;;;7.28;1.40;;;23.60;48.80;;;;;;5046466;28;20039;-76
2023/08/13 10:55:36;;;;;;;5.32;1.25;;;23.70;46.40;;;;;;5056599;28;20089;-76
2023/08/13 10:58:02;;;;;;;4.88;1.38;;;23.70;45.00;;;;;;5075976;28;20059;-77
2023/08/13 11:00:28;;;;;;;4.18;1.20;;;24.00;45.20;;;;;;5068519;28;20052;-76
2023/08/13 11:03:15;;;;;;;5.45;1.48;;;24.10;42.40;;;;;;5068550;28;20184;-75
2023/08/13 11:05:43;;;;;;;5.10;1.73;;;24.10;37.50;;;;;;5067902;28;20081;-76
2023/08/13 11:08:14;;;;;;;5.43;1.65;;;24.10;40.70;;;;;;5067199;28;20056;-77
2023/08/13 11:10:41;;;;;;;5.93;1.25;;;24.20;42.20;;;;;;5064635;28;20040;-75
2023/08/13 11:13:07;;;;;;;7.72;1.63;;;24.40;39.30;;;;;;5072947;28;21481;-76
2023/08/13 11:15:32;;;;;;;5.82;1.48;;;24.70;37.90;;;;;;5053967;28;20047;-78
2023/08/13 11:17:58;;;;;;;7.18;1.52;;;24.30;33.40;;;;;;5053524;28;20059;-77
2023/08/13 11:20:25;;;;;;;4.97;1.60;;;25.00;32.70;;;;;;5067468;28;20039;-76
2023/08/13 11:22:50;;;;;;;6.00;1.77;;;24.80;32.90;;;;;;5040772;28;20119;-77
2023/08/13 11:25:17;;;;;;;8.95;1.95;;;25.00;32.90;;;;;;5040184;28;20127;-78
2023/08/13 11:27:44;;;;;;;5.65;1.70;;;25.10;27.60;;;;;;5049813;28;20048;-76
2023/08/13 11:30:11;;;;;;;5.57;1.73;;;25.30;25.20;;;;;;5067715;28;20050;-76
2023/08/13 11:32:38;;;;;;;4.32;1.38;;;25.60;24.00;;;;;;5052983;28;20062;-76
2023/08/13 11:35:09;;;;;;;6.90;1.50;;;25.80;20.60;;;;;;5068867;28;20046;-76
2023/08/13 11:37:39;;;;;;;5.18;1.25;;;25.70;19.30;;;;;;5068243;28;20526;-78
2023/08/13 11:40:09;;;;;;;6.38;1.67;;;25.60;15.80;;;;;;5053603;28;20051;-77
2023/08/13 11:42:35;;;;;;;6.63;1.85;;;25.40;18.20;;;;;;5066500;28;20082;-76
2023/08/13 11:45:10;;;;;;;7.10;1.50;;;25.40;20.00;;;;;;5066519;28;20144;-77
2023/08/13 11:47:36;;;;;;;;;;;25.40;20.70;;;;;;5050790;28;20035;-76
2023/08/13 11:50:02;;;;;;;5.90;1.60;;;25.60;22.10;;;;;;5055189;28;19931;-76
2023/08/13 11:52:28;;;;;;;5.15;1.45;;;25.60;20.70;;;;;;5066584;28;20581;-76
2023/08/13 11:54:56;;;;;;;6.22;1.70;;;25.40;20.30;;;;;;5055268;28;20044;-77
2023/08/13 11:57:22;;;;;;;7.10;1.52;;;25.20;20.40;;;;;;5068595;28;20048;-76
2023/08/13 11:59:49;;;;;;;7.25;1.48;;;25.20;22.50;;;;;;5065536;28;20055;-78
2023/08/13 12:02:16;;;;;;;4.85;1.20;;;25.20;24.60;;;;;;5052605;28;20040;-76
2023/08/13 12:04:48;;;;;;;4.93;1.45;;;25.20;27.80;;;;;;5066083;28;20054;-77
2023/08/13 12:07:13;;;;;;;6.25;1.48;;;25.10;26.00;;;;;;5068699;28;20591;-76
2023/08/13 12:09:39;;;;;;;5.47;1.48;;;25.00;24.80;;;;;;5051712;28;20040;-76
2023/08/13 12:12:05;;;;;;;4.45;1.42;;;24.90;23.20;;;;;;5044830;28;20052;-77
2023/08/13 12:14:31;;;;;;;4.70;1.20;;;24.80;24.30;;;;;;5060115;28;20082;-77
2023/08/13 12:16:57;;;;;;;5.22;1.20;;;24.70;22.90;;;;;;5064714;28;20048;-77
2023/08/13 12:19:22;;;;;;;4.93;1.30;;;24.70;22.00;;;;;;5066316;28;20044;-76
2023/08/13 12:21:48;;;;;;;7.10;1.40;;;24.70;21.50;;;;;;5052029;28;20056;-76
2023/08/13 12:24:14;;;;;;;6.32;1.40;;;24.70;21.50;;;;;;5051047;28;20043;-77
2023/08/13 12:26:40;;;;;;;4.75;1.27;;;24.80;23.00;;;;;;5051584;28;20048;-77
2023/08/13 12:29:06;;;;;;;4.53;1.60;;;25.10;22.30;;;;;;5048092;28;20097;-77
2023/08/13 12:31:33;;;;;;;7.05;1.33;;;25.30;21.30;;;;;;5036732;28;20074;-76
2023/08/13 12:33:58;;;;;;;9.02;2.13;;;25.40;17.70;;;;;;5061460;28;20040;-76
2023/08/13 12:36:24;;;;;;;5.55;1.63;;;25.40;16.40;;;;;;5061459;28;20051;-77
2023/08/13 12:38:50;;;;;;;6.60;1.45;;;25.30;16.10;;;;;;5060866;28;20040;-76
2023/08/13 12:41:16;;;;;;;5.88;1.65;;;25.40;15.30;;;;;;5059737;28;20043;-77